createdAt,value
2023-05-18T00:00:21.944Z,5.05
2023-05-18T00:01:21.930Z,5.25
2023-05-18T00:02:22.097Z,4.92
2023-05-18T00:03:22.070Z,4.91
2023-05-18T00:04:21.927Z,4.87
2023-05-18T00:05:21.881Z,5.25
2023-05-18T00:06:21.877Z,5.16
2023-05-18T00:07:22.276Z,5.21
2023-05-18T00:08:21.865Z,5.50
2023-05-18T00:09:21.851Z,4.80
2023-05-18T00:10:21.858Z,5.46
2023-05-18T00:11:21.837Z,5.87
2023-05-18T00:12:22.171Z,5.89
2023-05-18T00:13:21.806Z,6.51
2023-05-18T00:14:21.802Z,5.65
2023-05-18T00:15:21.772Z,5.82
2023-05-18T00:16:22.169Z,5.96
2023-05-18T00:17:21.774Z,5.88
2023-05-18T00:18:21.764Z,5.75
2023-05-18T00:19:21.815Z,5.29
2023-05-18T00:20:21.733Z,5.54
2023-05-18T00:21:22.493Z,5.51
2023-05-18T00:22:21.715Z,6.56
2023-05-18T00:23:21.702Z,5.51
2023-05-18T00:24:21.695Z,5.93
2023-05-18T00:25:21.941Z,5.92
2023-05-18T00:26:22.074Z,5.48
2023-05-18T00:27:21.654Z,5.33
2023-05-18T00:28:21.653Z,5.14
2023-05-18T00:29:21.645Z,4.98
2023-05-18T00:30:21.946Z,5.68
2023-05-18T00:31:22.032Z,5.50
2023-05-18T00:32:21.624Z,5.92
2023-05-18T00:33:21.604Z,5.85
2023-05-18T00:34:21.603Z,5.09
2023-05-18T00:35:21.945Z,5.27
2023-05-18T00:36:21.571Z,5.71
2023-05-18T00:37:21.566Z,4.95
2023-05-18T00:38:21.544Z,5.85
2023-05-18T00:39:21.917Z,5.65
2023-05-18T00:40:21.849Z,6.11
2023-05-18T00:41:21.521Z,6.69
2023-05-18T00:42:21.505Z,6.16
2023-05-18T00:43:21.500Z,6.19
2023-05-18T00:44:22.212Z,6.40
2023-05-18T00:45:21.476Z,6.22
2023-05-18T00:46:21.521Z,6.31
2023-05-18T00:47:21.464Z,7.06
2023-05-18T00:48:21.555Z,6.84
2023-05-18T00:49:21.460Z,6.18
2023-05-18T00:50:21.519Z,6.34
2023-05-18T00:51:21.419Z,5.59
2023-05-18T00:52:21.402Z,6.07
2023-05-18T00:53:21.405Z,6.05
2023-05-18T00:54:22.118Z,5.73
2023-05-18T00:55:21.375Z,5.96
2023-05-18T00:56:21.363Z,6.44
2023-05-18T00:57:21.363Z,5.92
2023-05-18T00:58:22.088Z,6.13
2023-05-18T00:59:21.715Z,5.78
2023-05-18T01:00:21.346Z,6.39
2023-05-18T01:01:21.342Z,5.53
2023-05-18T01:02:21.347Z,5.49
2023-05-18T01:03:21.654Z,5.48
2023-05-18T01:04:21.278Z,5.32
2023-05-18T01:05:21.274Z,5.54
2023-05-18T01:06:21.272Z,5.47
2023-05-18T01:07:21.270Z,5.65
2023-05-18T01:08:21.609Z,5.56
2023-05-18T01:09:21.246Z,5.51
2023-05-18T01:10:21.221Z,5.27
2023-05-18T01:11:21.225Z,5.34
2023-05-18T01:12:21.536Z,5.62
2023-05-18T01:13:21.730Z,5.67
2023-05-18T01:14:21.208Z,5.99
2023-05-18T01:15:21.179Z,5.79
2023-05-18T01:16:21.150Z,5.54
2023-05-18T01:17:21.298Z,5.24
2023-05-18T01:18:21.134Z,5.24
2023-05-18T01:19:21.144Z,5.28
2023-05-18T01:20:21.113Z,4.74
2023-05-18T01:21:21.362Z,5.42
2023-05-18T01:22:21.291Z,4.77
2023-05-18T01:23:21.083Z,4.94
2023-05-18T01:24:21.073Z,5.18
2023-05-18T01:25:21.088Z,4.67
2023-05-18T01:26:21.378Z,4.61
2023-05-18T01:27:21.073Z,5.24
2023-05-18T01:28:21.032Z,5.04
2023-05-18T01:29:21.047Z,4.86
2023-05-18T01:30:21.009Z,4.39
2023-05-18T01:31:21.440Z,4.96
2023-05-18T01:32:20.990Z,5.13
2023-05-18T01:33:21.008Z,4.90
2023-05-18T01:34:20.974Z,4.42
2023-05-18T01:35:20.969Z,4.24
2023-05-18T01:36:20.968Z,4.68
2023-05-18T01:37:20.945Z,4.92
2023-05-18T01:38:20.935Z,4.31
2023-05-18T01:39:20.928Z,5.61
2023-05-18T01:40:21.347Z,5.41
2023-05-18T01:41:20.922Z,4.59
2023-05-18T01:42:20.902Z,5.12
2023-05-18T01:43:20.888Z,4.73
2023-05-18T01:44:20.875Z,4.82
2023-05-18T01:45:20.984Z,4.65
2023-05-18T01:46:20.912Z,4.48
2023-05-18T01:47:20.847Z,4.76
2023-05-18T01:48:20.827Z,5.21
2023-05-18T01:49:20.822Z,4.61
2023-05-18T01:50:21.607Z,4.59
2023-05-18T01:51:20.803Z,4.57
2023-05-18T01:52:20.786Z,4.31
2023-05-18T01:53:20.785Z,4.74
2023-05-18T01:54:21.524Z,4.74
2023-05-18T01:55:21.087Z,4.57
2023-05-18T01:56:20.747Z,4.84
2023-05-18T01:57:20.751Z,4.28
2023-05-18T01:58:20.729Z,4.86
2023-05-18T01:59:20.731Z,4.93
2023-05-18T02:00:20.906Z,4.39
2023-05-18T02:01:20.725Z,4.87
2023-05-18T02:02:20.758Z,4.40
2023-05-18T02:03:20.813Z,4.45
2023-05-18T02:04:21.531Z,4.35
2023-05-18T02:05:20.666Z,4.71
2023-05-18T02:06:20.648Z,4.81
2023-05-18T02:07:20.636Z,4.63
2023-05-18T02:08:21.037Z,4.69
2023-05-18T02:09:20.942Z,4.57
2023-05-18T02:10:20.604Z,4.73
2023-05-18T02:11:20.601Z,4.73
2023-05-18T02:12:20.578Z,5.07
2023-05-18T02:13:20.795Z,5.07
2023-05-18T02:14:20.556Z,5.53
2023-05-18T02:15:20.555Z,4.92
2023-05-18T02:16:20.635Z,4.52
2023-05-18T02:17:20.531Z,4.70
2023-05-18T02:18:20.820Z,4.62
2023-05-18T02:19:20.645Z,4.66
2023-05-18T02:20:20.503Z,4.95
2023-05-18T02:21:20.504Z,4.21
2023-05-18T02:22:20.794Z,4.70
2023-05-18T02:23:20.833Z,4.42
2023-05-18T02:24:20.459Z,5.03
2023-05-18T02:25:20.449Z,5.03
2023-05-18T02:26:20.426Z,4.86
2023-05-18T02:27:20.795Z,5.49
2023-05-18T02:28:20.424Z,5.43
2023-05-18T02:29:20.415Z,4.70
2023-05-18T02:30:20.396Z,5.19
2023-05-18T02:31:20.430Z,4.82
2023-05-18T02:32:20.539Z,4.68
2023-05-18T02:33:20.367Z,5.20
2023-05-18T02:34:20.347Z,5.45
2023-05-18T02:35:20.346Z,5.21
2023-05-18T02:36:20.330Z,4.63
2023-05-18T02:37:20.635Z,5.05
2023-05-18T02:38:20.313Z,4.56
2023-05-18T02:39:20.295Z,4.91
2023-05-18T02:40:20.292Z,5.17
2023-05-18T02:41:20.606Z,4.94
2023-05-18T02:42:20.587Z,5.72
2023-05-18T02:43:20.263Z,4.80
2023-05-18T02:44:20.249Z,5.77
2023-05-18T02:45:20.249Z,5.17
2023-05-18T02:46:21.144Z,5.33
2023-05-18T02:47:20.224Z,4.50
2023-05-18T02:48:20.153Z,4.54
2023-05-18T02:49:20.202Z,4.91
2023-05-18T02:50:20.151Z,4.80
2023-05-18T02:51:20.484Z,5.27
2023-05-18T02:52:20.107Z,4.67
2023-05-18T02:53:20.112Z,5.07
2023-05-18T02:54:20.094Z,5.20
2023-05-18T02:55:20.535Z,4.71
2023-05-18T02:56:20.086Z,4.74
2023-05-18T02:57:20.072Z,4.51
2023-05-18T02:58:20.074Z,4.00
2023-05-18T02:59:20.052Z,4.57
2023-05-18T03:00:20.554Z,4.64
2023-05-18T03:01:20.077Z,5.57
2023-05-18T03:02:20.057Z,4.46
2023-05-18T03:03:20.129Z,5.03
2023-05-18T03:04:20.011Z,4.98
2023-05-18T03:05:20.288Z,5.17
2023-05-18T03:06:19.972Z,4.29
2023-05-18T03:07:19.978Z,5.01
2023-05-18T03:08:19.943Z,4.99
2023-05-18T03:09:20.289Z,4.89
2023-05-18T03:10:20.290Z,4.63
2023-05-18T03:11:19.931Z,4.24
2023-05-18T03:12:19.927Z,4.54
2023-05-18T03:13:19.903Z,4.70
2023-05-18T03:14:20.227Z,5.02
2023-05-18T03:15:19.890Z,5.27
2023-05-18T03:16:19.883Z,5.56
2023-05-18T03:17:19.865Z,5.77
2023-05-18T03:18:19.849Z,4.96
2023-05-18T03:19:19.934Z,5.48
2023-05-18T03:20:19.852Z,4.84
2023-05-18T03:21:19.819Z,5.83
2023-05-18T03:22:19.814Z,5.27
2023-05-18T03:23:19.827Z,6.41
2023-05-18T03:24:20.169Z,6.13
2023-05-18T03:25:19.795Z,6.03
2023-05-18T03:26:19.777Z,6.99
2023-05-18T03:27:19.762Z,6.11
2023-05-18T03:28:20.076Z,5.90
2023-05-18T03:29:19.745Z,6.13
2023-05-18T03:30:19.726Z,5.40
2023-05-18T03:31:19.758Z,5.52
2023-05-18T03:32:19.704Z,5.33
2023-05-18T03:33:19.715Z,5.86
2023-05-18T03:34:19.685Z,5.65
2023-05-18T03:35:19.685Z,6.15
2023-05-18T03:36:19.662Z,5.31
2023-05-18T03:37:19.956Z,5.54
2023-05-18T03:38:20.096Z,5.95
2023-05-18T03:39:19.645Z,6.21
2023-05-18T03:40:19.631Z,6.03
2023-05-18T03:41:19.620Z,5.04
2023-05-18T03:42:19.926Z,5.59
2023-05-18T03:43:19.871Z,5.44
2023-05-18T03:44:19.584Z,5.32
2023-05-18T03:45:19.601Z,5.68
2023-05-18T03:46:19.609Z,5.16
2023-05-18T03:47:19.878Z,5.87
2023-05-18T03:48:19.543Z,5.22
2023-05-18T03:49:19.534Z,4.94
2023-05-18T03:50:19.534Z,5.95
2023-05-18T03:51:19.693Z,5.57
2023-05-18T03:52:19.510Z,5.46
2023-05-18T03:53:19.588Z,5.09
2023-05-18T03:54:19.511Z,5.17
2023-05-18T03:55:19.481Z,5.60
2023-05-18T03:56:19.688Z,6.03
2023-05-18T03:57:19.457Z,5.26
2023-05-18T03:58:19.440Z,6.16
2023-05-18T03:59:19.434Z,5.03
2023-05-18T04:00:19.422Z,5.79
2023-05-18T04:01:19.438Z,4.81
2023-05-18T04:02:19.450Z,5.70
2023-05-18T04:03:19.441Z,5.67
2023-05-18T04:04:19.443Z,4.84
2023-05-18T04:05:20.294Z,5.84
2023-05-18T04:06:19.878Z,5.56
2023-05-18T04:07:19.353Z,5.62
2023-05-18T04:08:19.340Z,5.68
2023-05-18T04:09:19.348Z,5.48
2023-05-18T04:10:19.741Z,5.42
2023-05-18T04:11:19.309Z,5.18
2023-05-18T04:12:19.293Z,5.89
2023-05-18T04:13:19.285Z,6.11
2023-05-18T04:14:19.273Z,5.90
2023-05-18T04:15:20.194Z,6.31
2023-05-18T04:16:19.288Z,6.37
2023-05-18T04:17:19.248Z,6.37
2023-05-18T04:18:19.233Z,6.01
2023-05-18T04:19:19.269Z,6.73
2023-05-18T04:20:19.470Z,5.76
2023-05-18T04:21:19.215Z,6.18
2023-05-18T04:22:19.204Z,5.34
2023-05-18T04:23:19.187Z,5.54
2023-05-18T04:24:19.481Z,6.15
2023-05-18T04:25:20.004Z,6.81
2023-05-18T04:26:19.152Z,5.95
2023-05-18T04:27:19.147Z,6.77
2023-05-18T04:28:19.460Z,6.23
2023-05-18T04:29:19.359Z,6.40
2023-05-18T04:30:19.168Z,6.56
2023-05-18T04:31:19.126Z,7.30
2023-05-18T04:32:19.204Z,7.36
2023-05-18T04:33:19.088Z,7.44
2023-05-18T04:34:19.842Z,5.87
2023-05-18T04:35:19.068Z,6.50
2023-05-18T04:36:20.853Z,6.34
2023-05-18T04:37:19.052Z,6.93
2023-05-18T04:38:19.033Z,6.93
2023-05-18T04:39:19.338Z,7.03
2023-05-18T04:40:19.027Z,7.08
2023-05-18T04:41:19.002Z,7.60
2023-05-18T04:42:18.989Z,7.47
2023-05-18T04:43:19.637Z,6.95
2023-05-18T04:44:18.986Z,6.46
2023-05-18T04:45:18.968Z,7.07
2023-05-18T04:46:18.998Z,7.62
2023-05-18T04:47:18.946Z,7.48
2023-05-18T04:48:19.332Z,7.67
2023-05-18T04:49:18.919Z,7.04
2023-05-18T04:50:18.896Z,6.95
2023-05-18T04:51:18.897Z,7.62
2023-05-18T04:52:18.891Z,7.42
2023-05-18T04:53:19.203Z,7.10
2023-05-18T04:54:18.872Z,7.46
2023-05-18T04:55:18.851Z,7.26
2023-05-18T04:56:18.854Z,6.89
2023-05-18T04:57:18.832Z,7.35
2023-05-18T04:58:19.182Z,7.79
2023-05-18T04:59:18.812Z,6.82
2023-05-18T05:00:18.814Z,7.40
2023-05-18T05:01:18.858Z,7.32
2023-05-18T05:02:19.131Z,6.57
2023-05-18T05:03:19.202Z,6.89
2023-05-18T05:04:18.767Z,7.97
2023-05-18T05:05:18.755Z,6.93
2023-05-18T05:06:18.740Z,6.84
2023-05-18T05:07:19.078Z,7.07
2023-05-18T05:08:18.721Z,7.35
2023-05-18T05:09:18.704Z,6.83
2023-05-18T05:10:18.693Z,7.37
2023-05-18T05:11:18.692Z,7.08
2023-05-18T05:12:18.990Z,6.81
2023-05-18T05:13:18.668Z,7.34
2023-05-18T05:14:18.659Z,6.73
2023-05-18T05:15:18.646Z,7.13
2023-05-18T05:16:18.999Z,6.83
2023-05-18T05:17:18.936Z,6.56
2023-05-18T05:18:18.620Z,6.54
2023-05-18T05:19:18.622Z,6.28
2023-05-18T05:20:18.659Z,6.19
2023-05-18T05:21:18.843Z,6.86
2023-05-18T05:22:18.579Z,6.52
2023-05-18T05:23:18.596Z,6.70
2023-05-18T05:24:18.556Z,5.75
2023-05-18T05:25:18.539Z,5.53
2023-05-18T05:26:19.406Z,6.33
2023-05-18T05:27:18.524Z,6.28
2023-05-18T05:28:18.513Z,5.95
2023-05-18T05:29:18.499Z,5.50
2023-05-18T05:30:18.810Z,6.55
2023-05-18T05:31:18.778Z,5.78
2023-05-18T05:32:18.478Z,6.47
2023-05-18T05:33:18.460Z,5.38
2023-05-18T05:34:18.451Z,5.75
2023-05-18T05:35:19.172Z,6.49
2023-05-18T05:36:18.425Z,5.49
2023-05-18T05:37:18.417Z,6.03
2023-05-18T05:38:18.419Z,5.57
2023-05-18T05:39:18.403Z,5.98
2023-05-18T05:40:18.726Z,6.01
2023-05-18T05:41:18.382Z,5.37
2023-05-18T05:42:18.385Z,5.75
2023-05-18T05:43:18.371Z,6.11
2023-05-18T05:44:18.356Z,5.42
2023-05-18T05:45:18.349Z,5.59
2023-05-18T05:46:18.392Z,5.59
2023-05-18T05:47:18.316Z,5.23
2023-05-18T05:48:18.353Z,5.33
2023-05-18T05:49:18.318Z,5.86
2023-05-18T05:50:18.638Z,5.49
2023-05-18T05:51:18.434Z,5.45
2023-05-18T05:52:18.272Z,4.96
2023-05-18T05:53:18.250Z,5.45
2023-05-18T05:54:18.275Z,5.65
2023-05-18T05:55:18.234Z,4.82
2023-05-18T05:56:18.229Z,5.02
2023-05-18T05:57:18.212Z,4.95
2023-05-18T05:58:18.223Z,5.14
2023-05-18T05:59:18.239Z,5.13
2023-05-18T06:00:18.176Z,5.21
2023-05-18T06:01:18.167Z,5.33
2023-05-18T06:02:18.193Z,4.83
2023-05-18T06:03:18.539Z,5.25
2023-05-18T06:04:18.488Z,5.45
2023-05-18T06:05:18.141Z,5.07
2023-05-18T06:06:18.131Z,5.24
2023-05-18T06:07:18.120Z,5.23
2023-05-18T06:08:18.419Z,5.23
2023-05-18T06:09:18.099Z,5.79
2023-05-18T06:10:18.079Z,5.41
2023-05-18T06:11:18.074Z,5.36
2023-05-18T06:12:18.062Z,4.66
2023-05-18T06:13:18.376Z,5.09
2023-05-18T06:14:18.046Z,5.50
2023-05-18T06:15:18.022Z,5.21
2023-05-18T06:16:18.051Z,5.33
2023-05-18T06:17:18.027Z,4.90
2023-05-18T06:18:18.407Z,4.82
2023-05-18T06:19:18.122Z,5.21
2023-05-18T06:20:17.988Z,5.35
2023-05-18T06:21:17.960Z,4.44
2023-05-18T06:22:18.268Z,4.97
2023-05-18T06:23:17.938Z,5.15
2023-05-18T06:24:17.941Z,5.75
2023-05-18T06:25:17.922Z,5.63
2023-05-18T06:26:17.912Z,5.57
2023-05-18T06:27:18.293Z,4.76
2023-05-18T06:28:17.900Z,5.01
2023-05-18T06:29:17.885Z,4.64
2023-05-18T06:30:17.888Z,4.84
2023-05-18T06:31:18.218Z,5.08
2023-05-18T06:32:17.960Z,4.82
2023-05-18T06:33:17.993Z,5.07
2023-05-18T06:34:17.839Z,4.91
2023-05-18T06:35:17.838Z,4.51
2023-05-18T06:36:17.855Z,5.34
2023-05-18T06:37:17.812Z,5.31
2023-05-18T06:38:17.806Z,5.41
2023-05-18T06:39:17.777Z,5.08
2023-05-18T06:40:17.774Z,4.78
2023-05-18T06:41:17.937Z,5.12
2023-05-18T06:42:17.756Z,4.53
2023-05-18T06:43:17.742Z,4.78
2023-05-18T06:44:17.736Z,4.22
2023-05-18T06:45:17.720Z,3.82
2023-05-18T06:46:18.560Z,5.15
2023-05-18T06:47:17.698Z,4.48
2023-05-18T06:48:17.694Z,5.07
2023-05-18T06:49:17.674Z,4.26
2023-05-18T06:50:17.697Z,4.59
2023-05-18T06:51:18.016Z,3.31
2023-05-18T06:52:17.661Z,3.79
2023-05-18T06:53:17.640Z,3.67
2023-05-18T06:54:17.642Z,4.21
2023-05-18T06:55:17.950Z,3.85
2023-05-18T06:56:17.609Z,3.07
2023-05-18T06:57:17.592Z,4.20
2023-05-18T06:58:17.605Z,3.82
2023-05-18T06:59:17.584Z,4.27
2023-05-18T07:00:18.130Z,3.81
2023-05-18T07:01:17.579Z,3.63
2023-05-18T07:02:17.582Z,4.52
2023-05-18T07:03:17.609Z,3.44
2023-05-18T07:04:18.276Z,3.65
2023-05-18T07:05:17.528Z,3.44
2023-05-18T07:06:18.345Z,3.74
2023-05-18T07:07:17.506Z,3.80
2023-05-18T07:08:17.520Z,3.85
2023-05-18T07:09:17.836Z,4.21
2023-05-18T07:10:17.802Z,3.65
2023-05-18T07:11:17.458Z,4.57
2023-05-18T07:12:17.461Z,3.41
2023-05-18T07:13:17.447Z,3.67
2023-05-18T07:14:17.758Z,4.06
2023-05-18T07:15:17.413Z,3.40
2023-05-18T07:16:17.414Z,3.67
2023-05-18T07:17:17.392Z,4.08
2023-05-18T07:18:17.935Z,4.16
2023-05-18T07:19:18.412Z,3.39
2023-05-18T07:20:17.358Z,3.63
2023-05-18T07:21:17.338Z,3.50
2023-05-18T07:22:17.351Z,3.76
2023-05-18T07:23:17.656Z,5.44
2023-05-18T07:24:17.322Z,3.85
2023-05-18T07:25:17.293Z,3.48
2023-05-18T07:26:17.289Z,3.31
2023-05-18T07:27:17.292Z,2.98
2023-05-18T07:28:17.313Z,3.21
2023-05-18T07:29:17.250Z,3.30
2023-05-18T07:30:17.239Z,3.36
2023-05-18T07:31:17.274Z,3.44
2023-05-18T07:32:17.231Z,3.84
2023-05-18T07:33:17.586Z,3.31
2023-05-18T07:34:17.204Z,3.99
2023-05-18T07:35:17.202Z,2.97
2023-05-18T07:36:17.168Z,3.69
2023-05-18T07:37:17.908Z,3.93
2023-05-18T07:38:17.593Z,2.99
2023-05-18T07:39:19.123Z,3.57
2023-05-18T07:40:17.142Z,3.48
2023-05-18T07:41:17.138Z,3.59
2023-05-18T07:42:17.482Z,2.54
2023-05-18T07:43:17.114Z,2.85
2023-05-18T07:44:17.115Z,3.28
2023-05-18T07:45:17.083Z,2.65
2023-05-18T07:46:17.093Z,2.57
2023-05-18T07:47:17.413Z,3.07
2023-05-18T07:48:17.056Z,2.85
2023-05-18T07:49:17.039Z,2.70
2023-05-18T07:50:17.034Z,3.09
2023-05-18T07:51:17.442Z,2.85
2023-05-18T07:52:17.353Z,2.06
2023-05-18T07:53:17.004Z,2.41
2023-05-18T07:54:17.010Z,2.73
2023-05-18T07:55:16.984Z,3.08
2023-05-18T07:56:16.988Z,2.88
2023-05-18T07:57:16.971Z,2.95
2023-05-18T07:58:16.977Z,3.14
2023-05-18T07:59:16.941Z,2.40
2023-05-18T08:00:16.909Z,2.86
2023-05-18T08:01:17.280Z,2.53
2023-05-18T08:02:16.998Z,2.42
2023-05-18T08:03:16.944Z,2.70
2023-05-18T08:04:16.908Z,2.78
2023-05-18T08:05:17.593Z,3.03
2023-05-18T08:06:17.794Z,2.76
2023-05-18T08:07:16.856Z,3.05
2023-05-18T08:08:16.839Z,3.16
2023-05-18T08:09:16.874Z,3.75
2023-05-18T08:10:17.097Z,3.03
2023-05-18T08:11:16.833Z,2.95
2023-05-18T08:12:16.797Z,2.85
2023-05-18T08:13:16.780Z,2.45
2023-05-18T08:14:16.772Z,2.92
2023-05-18T08:15:17.105Z,3.21
2023-05-18T08:16:16.794Z,2.88
2023-05-18T08:17:16.757Z,2.90
2023-05-18T08:18:16.755Z,2.59
2023-05-18T08:19:17.576Z,2.83
2023-05-18T08:20:17.076Z,3.60
2023-05-18T08:21:16.722Z,2.80
2023-05-18T08:22:16.684Z,3.13
2023-05-18T08:23:16.741Z,2.88
2023-05-18T08:24:17.023Z,3.88
2023-05-18T08:25:16.691Z,2.60
2023-05-18T08:26:16.654Z,2.99
2023-05-18T08:27:16.649Z,3.08
2023-05-18T08:28:16.618Z,2.76
2023-05-18T08:29:17.266Z,2.90
2023-05-18T08:30:16.607Z,3.36
2023-05-18T08:31:16.598Z,3.19
2023-05-18T08:32:16.638Z,2.91
2023-05-18T08:33:16.947Z,2.11
2023-05-18T08:34:16.874Z,2.49
2023-05-18T08:35:16.556Z,3.28
2023-05-18T08:36:16.539Z,2.42
2023-05-18T08:37:16.548Z,2.72
2023-05-18T08:38:16.955Z,2.82
2023-05-18T08:39:16.524Z,2.76
2023-05-18T08:40:16.489Z,3.10
2023-05-18T08:41:16.562Z,2.78
2023-05-18T08:42:16.471Z,2.37
2023-05-18T08:43:16.802Z,3.52
2023-05-18T08:44:16.478Z,2.53
2023-05-18T08:45:16.465Z,2.82
2023-05-18T08:46:16.443Z,3.02
2023-05-18T08:47:16.758Z,3.60
2023-05-18T08:48:16.901Z,2.35
2023-05-18T08:49:16.416Z,2.92
2023-05-18T08:50:16.377Z,3.05
2023-05-18T08:51:16.388Z,2.75
2023-05-18T08:52:16.730Z,2.81
2023-05-18T08:53:16.369Z,3.01
2023-05-18T08:54:16.342Z,2.76
2023-05-18T08:55:16.370Z,3.07
2023-05-18T08:56:16.323Z,2.79
2023-05-18T08:57:16.331Z,2.80
2023-05-18T08:58:16.374Z,2.31
2023-05-18T08:59:16.326Z,3.03
2023-05-18T09:00:16.317Z,2.23
2023-05-18T09:01:16.739Z,2.96
2023-05-18T09:02:16.601Z,2.34
2023-05-18T09:03:16.302Z,2.53
2023-05-18T09:04:16.257Z,2.83
2023-05-18T09:05:16.322Z,2.46
2023-05-18T09:06:16.256Z,2.93
2023-05-18T09:07:16.219Z,3.30
2023-05-18T09:08:16.200Z,2.42
2023-05-18T09:09:16.189Z,3.03
2023-05-18T09:10:16.324Z,3.36
2023-05-18T09:11:16.217Z,3.01
2023-05-18T09:12:16.365Z,2.37
2023-05-18T09:13:16.185Z,2.79
2023-05-18T09:14:16.216Z,3.64
2023-05-18T09:15:16.188Z,3.33
2023-05-18T09:16:16.248Z,3.07
2023-05-18T09:17:16.099Z,3.07
2023-05-18T09:18:16.108Z,2.44
2023-05-18T09:19:16.102Z,2.37
2023-05-18T09:20:16.516Z,2.76
2023-05-18T09:21:16.068Z,2.99
2023-05-18T09:22:16.124Z,2.91
2023-05-18T09:23:16.069Z,3.73
2023-05-18T09:24:16.042Z,3.30
2023-05-18T09:25:16.035Z,3.35
2023-05-18T09:26:16.004Z,3.18
2023-05-18T09:27:16.097Z,3.72
2023-05-18T09:28:16.007Z,2.71
2023-05-18T09:29:15.995Z,3.01
2023-05-18T09:30:16.334Z,2.99
2023-05-18T09:31:15.973Z,3.28
2023-05-18T09:32:15.940Z,3.07
2023-05-18T09:33:16.116Z,3.10
2023-05-18T09:34:15.953Z,2.44
2023-05-18T09:35:16.376Z,3.26
2023-05-18T09:36:15.929Z,3.16
2023-05-18T09:37:15.924Z,2.73
2023-05-18T09:38:15.885Z,2.68
2023-05-18T09:39:16.390Z,2.64
2023-05-18T09:40:15.993Z,2.33
2023-05-18T09:41:15.863Z,3.33
2023-05-18T09:42:15.891Z,2.35
2023-05-18T09:43:16.330Z,2.39
2023-05-18T09:44:16.176Z,2.30
2023-05-18T09:45:15.803Z,3.10
2023-05-18T09:46:15.877Z,2.96
2023-05-18T09:47:15.778Z,3.59
2023-05-18T09:48:15.924Z,3.04
2023-05-18T09:49:16.430Z,2.55
2023-05-18T09:50:15.771Z,2.89
2023-05-18T09:51:15.751Z,2.60
2023-05-18T09:52:17.064Z,2.94
2023-05-18T09:53:16.215Z,2.90
2023-05-18T09:54:15.720Z,3.11
2023-05-18T09:55:15.707Z,3.48
2023-05-18T09:56:15.708Z,3.04
2023-05-18T09:57:15.685Z,3.68
2023-05-18T09:58:15.681Z,2.34
2023-05-18T09:59:15.671Z,2.91
2023-05-18T10:00:15.673Z,2.90
2023-05-18T10:01:15.658Z,2.37
2023-05-18T10:02:15.929Z,3.03
2023-05-18T10:03:15.634Z,2.52
2023-05-18T10:04:15.650Z,2.96
2023-05-18T10:05:15.585Z,2.17
2023-05-18T10:06:15.579Z,2.63
2023-05-18T10:07:15.904Z,2.75
2023-05-18T10:08:15.567Z,2.82
2023-05-18T10:09:15.542Z,2.73
2023-05-18T10:10:15.585Z,2.62
2023-05-18T10:11:15.515Z,2.69
2023-05-18T10:12:15.543Z,3.54
2023-05-18T10:13:15.520Z,3.22
2023-05-18T10:14:15.496Z,3.17
2023-05-18T10:15:15.475Z,2.60
2023-05-18T10:16:15.883Z,2.85
2023-05-18T10:17:17.051Z,2.41
2023-05-18T10:18:15.500Z,2.29
2023-05-18T10:19:15.563Z,2.30
2023-05-18T10:20:15.458Z,2.87
2023-05-18T10:21:15.782Z,2.78
2023-05-18T10:22:15.419Z,2.83
2023-05-18T10:23:15.407Z,3.00
2023-05-18T10:24:15.386Z,2.63
2023-05-18T10:25:15.725Z,2.91
2023-05-18T10:26:15.387Z,2.59
2023-05-18T10:27:15.361Z,2.67
2023-05-18T10:28:15.356Z,2.80
2023-05-18T10:29:15.331Z,2.45
2023-05-18T10:30:15.733Z,2.71
2023-05-18T10:31:15.427Z,2.86
2023-05-18T10:32:15.376Z,3.87
2023-05-18T10:33:27.927Z,3.43
2023-05-18T10:34:15.308Z,2.69
2023-05-18T10:35:15.577Z,2.83
2023-05-18T10:36:15.267Z,2.72
2023-05-18T10:37:15.268Z,2.85
2023-05-18T10:38:15.238Z,3.47
2023-05-18T10:39:15.246Z,2.58
2023-05-18T10:40:15.254Z,2.92
2023-05-18T10:41:15.209Z,3.51
2023-05-18T10:42:15.199Z,3.05
2023-05-18T10:43:17.520Z,2.92
2023-05-18T10:44:15.492Z,2.71
2023-05-18T10:45:15.165Z,3.40
2023-05-18T10:46:15.238Z,3.42
2023-05-18T10:47:15.245Z,3.40
2023-05-18T10:48:15.211Z,3.05
2023-05-18T10:49:15.161Z,3.12
2023-05-18T10:50:15.146Z,3.03
2023-05-18T10:51:15.102Z,3.49
2023-05-18T10:52:15.124Z,3.47
2023-05-18T10:53:15.084Z,3.52
2023-05-18T10:54:15.489Z,3.50
2023-05-18T10:55:15.060Z,3.77
2023-05-18T10:56:15.054Z,3.02
2023-05-18T10:57:15.037Z,3.36
2023-05-18T10:58:15.370Z,3.54
2023-05-18T10:59:15.052Z,3.08
2023-05-18T11:00:15.025Z,2.74
2023-05-18T11:01:15.015Z,2.68
2023-05-18T11:02:15.116Z,3.01
2023-05-18T11:03:15.486Z,3.15
2023-05-18T11:04:14.982Z,3.25
2023-05-18T11:05:15.013Z,3.11
2023-05-18T11:06:15.143Z,3.52
2023-05-18T11:07:14.950Z,2.42
2023-05-18T11:08:14.979Z,3.11
2023-05-18T11:09:14.927Z,2.98
2023-05-18T11:10:14.940Z,3.25
2023-05-18T11:11:17.244Z,4.25
2023-05-18T11:12:14.919Z,3.11
2023-05-18T11:13:14.896Z,3.39
2023-05-18T11:14:14.861Z,2.98
2023-05-18T11:15:14.842Z,2.72
2023-05-18T11:16:14.960Z,2.83
2023-05-18T11:17:14.853Z,3.39
2023-05-18T11:18:14.944Z,2.76
2023-05-18T11:19:14.910Z,2.92
2023-05-18T11:20:14.888Z,2.80
2023-05-18T11:21:14.783Z,3.41
2023-05-18T11:22:14.800Z,2.95
2023-05-18T11:23:14.765Z,2.59
2023-05-18T11:24:14.782Z,3.04
2023-05-18T11:25:14.741Z,3.29
2023-05-18T11:26:14.743Z,3.26
2023-05-18T11:27:14.766Z,3.08
2023-05-18T11:28:14.789Z,3.15
2023-05-18T11:29:14.711Z,2.89
2023-05-18T11:30:15.832Z,3.28
2023-05-18T11:31:14.707Z,2.97
2023-05-18T11:32:19.013Z,3.13
2023-05-18T11:33:14.735Z,3.95
2023-05-18T11:34:14.657Z,3.45
2023-05-18T11:35:14.622Z,2.62
2023-05-18T11:36:14.742Z,3.37
2023-05-18T11:37:14.635Z,2.54
2023-05-18T11:38:14.615Z,2.72
2023-05-18T11:39:14.588Z,2.41
2023-05-18T11:40:14.682Z,2.63
2023-05-18T11:41:14.592Z,3.44
2023-05-18T11:42:14.570Z,2.58
2023-05-18T11:43:14.539Z,3.31
2023-05-18T11:44:14.539Z,3.18
2023-05-18T11:45:14.614Z,3.19
2023-05-18T11:46:14.941Z,2.84
2023-05-18T11:47:14.515Z,3.30
2023-05-18T11:48:14.633Z,3.24
2023-05-18T11:49:14.525Z,2.68
2023-05-18T11:50:14.938Z,2.92
2023-05-18T11:51:14.527Z,3.01
2023-05-18T11:52:14.475Z,2.92
2023-05-18T11:53:14.495Z,3.02
2023-05-18T11:54:14.433Z,2.38
2023-05-18T11:55:14.786Z,2.61
2023-05-18T11:56:14.410Z,3.03
2023-05-18T11:57:15.384Z,2.74
2023-05-18T11:58:14.392Z,2.92
2023-05-18T11:59:14.401Z,2.28
2023-05-18T12:00:14.450Z,2.91
2023-05-18T12:01:14.349Z,2.89
2023-05-18T12:02:14.384Z,2.74
2023-05-18T12:03:14.412Z,3.13
2023-05-18T12:04:14.666Z,2.32
2023-05-18T12:05:14.318Z,3.12
2023-05-18T12:06:14.308Z,2.82
2023-05-18T12:07:14.290Z,3.25
2023-05-18T12:08:14.290Z,3.05
2023-05-18T12:09:14.286Z,2.71
2023-05-18T12:10:14.260Z,2.76
2023-05-18T12:11:14.243Z,3.29
2023-05-18T12:12:14.239Z,3.01
2023-05-18T12:13:14.246Z,2.84
2023-05-18T12:14:14.242Z,2.79
2023-05-18T12:15:16.538Z,2.64
2023-05-18T12:16:14.243Z,2.19
2023-05-18T12:17:14.258Z,2.90
2023-05-18T12:18:14.244Z,2.52
2023-05-18T12:19:14.207Z,2.77
2023-05-18T12:20:14.160Z,2.89
2023-05-18T12:21:14.146Z,2.53
2023-05-18T12:22:14.129Z,3.01
2023-05-18T12:23:14.137Z,3.06
2023-05-18T12:24:14.112Z,2.76
2023-05-18T12:25:14.090Z,2.74
2023-05-18T12:26:14.094Z,2.87
2023-05-18T12:27:14.973Z,2.16
2023-05-18T12:28:14.619Z,2.49
2023-05-18T12:29:14.048Z,2.29
2023-05-18T12:30:14.082Z,2.40
2023-05-18T12:31:14.071Z,2.40
2023-05-18T12:32:14.403Z,2.91
2023-05-18T12:33:14.045Z,3.03
2023-05-18T12:34:14.009Z,3.04
2023-05-18T12:35:13.983Z,2.88
2023-05-18T12:36:14.010Z,2.79
2023-05-18T12:37:14.740Z,2.49
2023-05-18T12:38:13.964Z,2.38
2023-05-18T12:39:13.953Z,2.51
2023-05-18T12:40:13.939Z,2.51
2023-05-18T12:41:13.924Z,2.33
2023-05-18T12:42:14.327Z,3.48
2023-05-18T12:43:13.917Z,3.33
2023-05-18T12:44:13.953Z,2.59
2023-05-18T12:45:13.906Z,2.65
2023-05-18T12:46:13.931Z,2.66
2023-05-18T12:47:13.904Z,2.60
2023-05-18T12:48:13.912Z,2.90
2023-05-18T12:49:13.836Z,2.67
2023-05-18T12:50:13.828Z,2.39
2023-05-18T12:51:13.835Z,2.24
2023-05-18T12:52:13.825Z,2.76
2023-05-18T12:53:13.792Z,2.63
2023-05-18T12:54:13.809Z,2.71
2023-05-18T12:55:13.774Z,2.67
2023-05-18T12:56:14.169Z,2.90
2023-05-18T12:57:13.768Z,2.68
2023-05-18T12:58:13.797Z,2.42
2023-05-18T12:59:13.728Z,2.53
2023-05-18T13:00:14.041Z,2.88
2023-05-18T13:01:14.063Z,2.48
2023-05-18T13:02:13.717Z,3.02
2023-05-18T13:03:15.112Z,2.25
2023-05-18T13:04:13.767Z,2.66
2023-05-18T13:05:14.365Z,2.86
2023-05-18T13:06:13.670Z,2.70
2023-05-18T13:07:13.672Z,2.68
2023-05-18T13:08:13.654Z,2.27
2023-05-18T13:09:13.635Z,2.78
2023-05-18T13:10:13.966Z,2.30
2023-05-18T13:11:14.981Z,2.81
2023-05-18T13:12:13.603Z,2.87
2023-05-18T13:13:13.591Z,2.35
2023-05-18T13:14:13.944Z,2.21
2023-05-18T13:15:13.927Z,2.44
2023-05-18T13:16:13.665Z,2.75
2023-05-18T13:17:13.550Z,2.81
2023-05-18T13:18:13.565Z,2.43